Terminal Aerodrome Forecast
Issued by NWS

Home | Current Version | Previous Version | Text Only | Print | Product List | Glossary On
Versions: 1 2 3 4 5 6 7 8 9 10 11 12 13 14 15 16 17 18 19 20 21
000
FTUS43 KSGF 250100 AAA
TAFJLN
TAF AMD
KJLN 250149Z 2502/2524 28010KT P6SM SCT250
     FM250500 VRB05KT P6SM SCT250
     FM251800 15010KT P6SM BKN050 OVC100
      TEMPO 2520/2524 6SM -TSRA OVC050CB=

USA.gov is the U.S. government's official web portal to all federal, state and local government web resources and services.